Time;durP1;ratioP1;P1;durP2;ratioP2;P2;SDS_P1;SDS_P2;PMS_P1;PMS_P2;Temp;Humidity;BMP_temperature;BMP_pressure;BME280_temperature;BME280_humidity;BME280_pressure;Samples;Min_cycle;Max_cycle;Signal;HPM_P1;HPM_P2
2022/08/31 00:03:56;;;;;;;3.42;1.65;;;;;;;;;;5032359;28;20271;-72
2022/08/31 00:06:21;;;;;;;5.05;1.77;;;;;;;;;;5032619;28;20249;-72
2022/08/31 00:08:47;;;;;;;5.65;1.55;;;;;;;;;;5038973;28;20313;-71
2022/08/31 00:11:13;;;;;;;3.95;1.90;;;;;;;;;;5038607;28;20217;-71
2022/08/31 00:13:39;;;;;;;4.18;1.80;;;;;;;;;;5038246;28;20543;-71
2022/08/31 00:16:05;;;;;;;4.28;1.80;;;;;;;;;;5038180;28;20224;-71
2022/08/31 00:18:30;;;;;;;5.05;2.00;;;;;;;;;;5020602;28;20216;-71
2022/08/31 00:20:55;;;;;;;4.53;1.50;;;;;;;;;;5020115;28;20219;-71
2022/08/31 00:23:21;;;;;;;3.65;2.05;;;;;;;;;;5019312;28;20234;-72
2022/08/31 00:25:46;;;;;;;4.15;1.80;;;;;;;;;;5024566;28;20628;-72
2022/08/31 00:28:12;;;;;;;2.92;1.70;;;;;;;;;;5031344;28;20238;-71
2022/08/31 00:30:37;;;;;;;6.05;1.85;;;;;;;;;;5037098;28;20257;-72
2022/08/31 00:33:02;;;;;;;5.05;1.70;;;;;;;;;;5038806;28;20219;-71
2022/08/31 00:35:28;;;;;;;4.13;1.52;;;;;;;;;;5039419;28;20219;-72
2022/08/31 00:37:54;;;;;;;4.70;1.98;;;;;;;;;;5025765;28;20779;-72
2022/08/31 00:40:19;;;;;;;4.40;1.80;;;;;;;;;;5019730;28;20892;-71
2022/08/31 00:42:45;;;;;;;3.72;1.67;;;;;;;;;;5019548;28;20216;-72
2022/08/31 00:45:10;;;;;;;5.22;1.88;;;;;;;;;;5018028;28;20250;-72
2022/08/31 00:47:35;;;;;;;5.57;2.00;;;;;;;;;;5016661;28;20208;-71
2022/08/31 00:50:02;;;;;;;6.75;2.15;;;;;;;;;;5015855;28;20252;-71
2022/08/31 00:52:30;;;;;;;3.88;1.60;;;;;;;;;;5023363;28;20207;-72
2022/08/31 00:54:58;;;;;;;4.90;1.70;;;;;;;;;;5024639;28;20626;-72
2022/08/31 00:57:23;;;;;;;2.88;1.60;;;;;;;;;;5041869;28;20653;-72
2022/08/31 00:59:49;;;;;;;5.47;2.20;;;;;;;;;;5041824;28;20681;-72
2022/08/31 01:02:14;;;;;;;4.55;1.83;;;;;;;;;;5040627;28;20215;-71
2022/08/31 01:04:40;;;;;;;4.88;1.70;;;;;;;;;;5042262;28;20219;-72
2022/08/31 01:07:05;;;;;;;2.67;1.60;;;;;;;;;;5040822;28;20227;-72
2022/08/31 01:09:32;;;;;;;4.47;1.63;;;;;;;;;;5034697;28;20215;-72
2022/08/31 01:11:57;;;;;;;3.75;1.73;;;;;;;;;;5035077;28;20222;-71
2022/08/31 01:14:22;;;;;;;2.38;1.50;;;;;;;;;;5035909;28;20207;-72
2022/08/31 01:16:48;;;;;;;3.03;1.70;;;;;;;;;;5037430;28;20295;-72
2022/08/31 01:19:23;;;;;;;6.13;1.80;;;;;;;;;;5039385;28;20211;-72
2022/08/31 01:21:55;;;;;;;3.40;1.60;;;;;;;;;;5042541;28;20643;-72
2022/08/31 01:24:22;;;;;;;4.30;1.80;;;;;;;;;;5037135;28;20223;-72
2022/08/31 01:26:47;;;;;;;6.53;2.00;;;;;;;;;;5024402;28;20570;-72
2022/08/31 01:29:13;;;;;;;3.95;1.98;;;;;;;;;;5020471;28;20691;-71
2022/08/31 01:31:39;;;;;;;4.38;1.90;;;;;;;;;;5016386;28;20220;-72
2022/08/31 01:34:05;;;;;;;2.20;1.70;;;;;;;;;;5031972;28;20514;-71
2022/08/31 01:36:31;;;;;;;3.10;1.67;;;;;;;;;;5033069;28;20294;-72
2022/08/31 01:38:56;;;;;;;2.95;1.85;;;;;;;;;;5041152;28;20214;-71
2022/08/31 01:41:21;;;;;;;4.22;1.67;;;;;;;;;;5040910;28;20219;-72
2022/08/31 01:43:47;;;;;;;3.05;1.65;;;;;;;;;;5042020;28;20211;-72
2022/08/31 01:46:12;;;;;;;4.43;2.15;;;;;;;;;;5041131;28;20697;-72
2022/08/31 01:48:38;;;;;;;3.13;1.60;;;;;;;;;;5040028;28;20211;-72
2022/08/31 01:51:03;;;;;;;2.10;1.58;;;;;;;;;;5039964;28;20241;-70
2022/08/31 01:53:28;;;;;;;6.28;1.83;;;;;;;;;;5016996;28;20498;-67
2022/08/31 01:55:54;;;;;;;4.03;1.98;;;;;;;;;;5014729;28;20223;-67
2022/08/31 01:58:19;;;;;;;3.60;2.10;;;;;;;;;;5014501;28;20376;-67
2022/08/31 02:00:45;;;;;;;4.90;1.90;;;;;;;;;;5037227;28;20215;-67
2022/08/31 02:03:10;;;;;;;6.22;1.80;;;;;;;;;;5041052;28;20780;-67
2022/08/31 02:05:36;;;;;;;3.83;1.80;;;;;;;;;;5041905;28;20223;-67
2022/08/31 02:08:01;;;;;;;3.67;1.60;;;;;;;;;;5040333;28;20219;-67
2022/08/31 02:10:27;;;;;;;5.18;1.80;;;;;;;;;;5041647;28;20658;-67
2022/08/31 02:12:52;;;;;;;3.95;1.70;;;;;;;;;;5040435;28;20215;-67
2022/08/31 02:15:17;;;;;;;2.20;1.35;;;;;;;;;;5038169;28;20330;-67
2022/08/31 02:17:43;;;;;;;5.65;1.80;;;;;;;;;;5021768;28;20224;-67
2022/08/31 02:20:09;;;;;;;3.25;1.58;;;;;;;;;;5014096;28;20295;-67
2022/08/31 02:22:34;;;;;;;3.58;1.80;;;;;;;;;;5014438;28;20250;-67
2022/08/31 02:24:59;;;;;;;2.55;1.40;;;;;;;;;;5039356;28;20254;-67
2022/08/31 02:27:25;;;;;;;4.00;1.60;;;;;;;;;;5040370;28;20578;-67
2022/08/31 02:29:50;;;;;;;3.33;1.48;;;;;;;;;;5040392;28;20207;-67
2022/08/31 02:32:15;;;;;;;5.00;1.85;;;;;;;;;;5041183;28;20214;-67
2022/08/31 02:34:41;;;;;;;5.13;1.85;;;;;;;;;;5041002;28;20223;-67
2022/08/31 02:37:07;;;;;;;3.88;1.45;;;;;;;;;;5033917;28;20294;-67
2022/08/31 02:39:32;;;;;;;2.63;1.60;;;;;;;;;;5014700;28;20281;-67
2022/08/31 02:41:58;;;;;;;3.33;1.70;;;;;;;;;;5014155;28;20204;-67
2022/08/31 02:44:23;;;;;;;5.72;1.65;;;;;;;;;;5013108;28;20259;-67
2022/08/31 02:46:48;;;;;;;3.67;1.92;;;;;;;;;;5020935;28;20270;-67
2022/08/31 02:49:14;;;;;;;3.60;1.33;;;;;;;;;;5020574;28;20227;-67
2022/08/31 02:51:40;;;;;;;3.67;1.50;;;;;;;;;;5020342;28;20216;-67
2022/08/31 02:54:05;;;;;;;5.18;1.70;;;;;;;;;;5039448;28;20219;-67
2022/08/31 02:56:31;;;;;;;3.42;1.50;;;;;;;;;;5040223;28;20730;-67
2022/08/31 02:58:57;;;;;;;3.45;1.52;;;;;;;;;;5040174;28;20625;-67
2022/08/31 03:01:23;;;;;;;4.15;1.73;;;;;;;;;;5035718;28;20207;-67
2022/08/31 03:03:48;;;;;;;3.97;1.70;;;;;;;;;;5032662;28;20217;-67
2022/08/31 03:06:14;;;;;;;4.78;1.83;;;;;;;;;;5031713;28;20377;-67
2022/08/31 03:08:41;;;;;;;4.28;1.23;;;;;;;;;;5037802;28;20296;-67
2022/08/31 03:11:06;;;;;;;2.53;1.52;;;;;;;;;;5039284;28;20286;-67
2022/08/31 03:13:31;;;;;;;3.33;1.77;;;;;;;;;;5040416;28;20375;-67
2022/08/31 03:15:57;;;;;;;3.63;1.55;;;;;;;;;;5040037;28;20218;-67
2022/08/31 03:18:22;;;;;;;3.92;1.60;;;;;;;;;;5021023;28;20242;-67
2022/08/31 03:20:47;;;;;;;2.60;1.60;;;;;;;;;;5020660;28;20605;-67
2022/08/31 03:23:14;;;;;;;4.65;1.55;;;;;;;;;;5022842;28;20756;-67
2022/08/31 03:25:39;;;;;;;3.05;1.60;;;;;;;;;;5025865;28;20844;-67
2022/08/31 03:28:05;;;;;;;3.30;1.50;;;;;;;;;;5012943;28;20219;-67
2022/08/31 03:30:30;;;;;;;2.55;1.58;;;;;;;;;;5034785;28;20207;-67
2022/08/31 03:32:55;;;;;;;2.90;1.45;;;;;;;;;;5039570;28;20207;-67
2022/08/31 03:35:21;;;;;;;1.95;1.33;;;;;;;;;;5039415;28;20685;-67
2022/08/31 03:37:47;;;;;;;4.93;1.30;;;;;;;;;;5029092;28;20288;-67
2022/08/31 03:40:12;;;;;;;3.53;1.55;;;;;;;;;;5018868;28;20208;-67
2022/08/31 03:42:37;;;;;;;3.25;1.30;;;;;;;;;;5020592;28;20600;-67
2022/08/31 03:45:03;;;;;;;3.00;1.40;;;;;;;;;;5019499;28;20281;-67
2022/08/31 03:47:28;;;;;;;2.67;1.20;;;;;;;;;;5013239;28;20215;-67
2022/08/31 03:49:53;;;;;;;2.40;1.38;;;;;;;;;;5012830;28;20218;-67
2022/08/31 03:52:20;;;;;;;2.78;1.50;;;;;;;;;;5019465;28;20639;-67
2022/08/31 03:54:46;;;;;;;4.10;1.40;;;;;;;;;;5018711;28;20297;-67
2022/08/31 03:57:11;;;;;;;3.47;1.40;;;;;;;;;;5019359;28;20618;-67
2022/08/31 03:59:36;;;;;;;3.10;1.20;;;;;;;;;;5020377;28;20230;-67
2022/08/31 04:02:02;;;;;;;2.70;1.40;;;;;;;;;;5019152;28;20227;-67
2022/08/31 04:04:27;;;;;;;3.78;1.50;;;;;;;;;;5020514;28;20235;-67
2022/08/31 04:06:52;;;;;;;3.33;1.27;;;;;;;;;;5038987;28;20289;-67
2022/08/31 04:09:18;;;;;;;3.28;1.23;;;;;;;;;;5034225;28;20575;-67
2022/08/31 04:11:43;;;;;;;2.13;1.13;;;;;;;;;;5031968;28;20590;-67
2022/08/31 04:14:09;;;;;;;2.13;1.25;;;;;;;;;;5030955;28;20580;-67
2022/08/31 04:16:34;;;;;;;3.05;1.10;;;;;;;;;;5032986;28;20683;-67
2022/08/31 04:19:00;;;;;;;1.90;1.20;;;;;;;;;;5023161;28;20216;-67
2022/08/31 04:21:25;;;;;;;3.05;1.30;;;;;;;;;;5022972;28;20223;-67
2022/08/31 04:23:51;;;;;;;2.22;1.17;;;;;;;;;;5032368;28;20223;-67
2022/08/31 04:26:23;;;;;;;3.47;1.23;;;;;;;;;;5030849;28;20829;-67
2022/08/31 04:28:49;;;;;;;2.08;1.20;;;;;;;;;;5042671;28;20229;-67
2022/08/31 04:31:14;;;;;;;2.25;1.05;;;;;;;;;;5040133;28;20215;-67
2022/08/31 04:33:40;;;;;;;3.53;1.30;;;;;;;;;;5036598;28;20693;-68
2022/08/31 04:36:06;;;;;;;3.55;1.45;;;;;;;;;;5035946;28;20316;-68
2022/08/31 04:38:32;;;;;;;3.83;1.30;;;;;;;;;;5020674;28;20574;-68
2022/08/31 04:40:57;;;;;;;2.05;1.17;;;;;;;;;;5043173;28;20471;-64
2022/08/31 04:43:23;;;;;;;2.17;1.00;;;;;;;;;;5042069;28;20211;-65
2022/08/31 04:45:48;;;;;;;4.47;1.30;;;;;;;;;;5043048;28;20242;-65
2022/08/31 04:48:14;;;;;;;2.33;1.17;;;;;;;;;;5041944;28;20424;-67
2022/08/31 04:50:39;;;;;;;4.40;1.13;;;;;;;;;;5032181;28;21077;-66
2022/08/31 04:53:04;;;;;;;4.75;1.00;;;;;;;;;;5022323;28;20257;-66
2022/08/31 04:55:30;;;;;;;2.75;1.08;;;;;;;;;;5017194;28;20220;-66
2022/08/31 04:57:55;;;;;;;2.03;0.90;;;;;;;;;;5015406;28;20250;-69
2022/08/31 05:00:20;;;;;;;2.60;0.90;;;;;;;;;;5016186;28;20220;-69
2022/08/31 05:02:46;;;;;;;2.72;1.10;;;;;;;;;;5023243;28;20216;-67
2022/08/31 05:05:11;;;;;;;1.63;0.90;;;;;;;;;;5022128;28;20211;-69
2022/08/31 05:07:36;;;;;;;2.08;0.80;;;;;;;;;;5022988;28;20211;-67
2022/08/31 05:10:03;;;;;;;3.65;0.90;;;;;;;;;;5022794;28;20200;-67
2022/08/31 05:12:29;;;;;;;1.58;0.90;;;;;;;;;;5027614;28;20238;-67
2022/08/31 05:14:54;;;;;;;1.42;0.82;;;;;;;;;;5051014;28;20492;-66
2022/08/31 05:17:19;;;;;;;2.25;0.90;;;;;;;;;;5050653;28;20258;-66
2022/08/31 05:19:45;;;;;;;2.47;0.90;;;;;;;;;;5051672;28;20241;-67
2022/08/31 05:22:10;;;;;;;3.00;0.90;;;;;;;;;;5051083;28;20214;-67
2022/08/31 05:24:37;;;;;;;2.58;0.90;;;;;;;;;;5033576;28;20510;-71
2022/08/31 05:27:03;;;;;;;2.42;0.80;;;;;;;;;;5049703;28;20436;-71
2022/08/31 05:29:28;;;;;;;2.78;0.80;;;;;;;;;;5050772;28;20203;-72
2022/08/31 05:31:53;;;;;;;4.15;1.00;;;;;;;;;;5051312;28;20230;-70
2022/08/31 05:34:19;;;;;;;1.88;0.88;;;;;;;;;;5051182;28;20689;-75
2022/08/31 05:36:45;;;;;;;2.22;1.02;;;;;;;;;;5043307;28;20215;-72
2022/08/31 05:39:11;;;;;;;2.50;0.88;;;;;;;;;;5042974;28;20211;-75
2022/08/31 05:41:37;;;;;;;2.13;1.27;;;;;;;;;;5043563;28;20306;-66
2022/08/31 05:44:02;;;;;;;1.52;0.70;;;;;;;;;;5040573;28;20507;-66
2022/08/31 05:46:28;;;;;;;1.80;0.90;;;;;;;;;;5043440;28;20230;-69
2022/08/31 05:48:54;;;;;;;2.50;0.93;;;;;;;;;;5044277;28;20219;-72
2022/08/31 05:51:19;;;;;;;2.80;0.93;;;;;;;;;;5048804;28;20206;-73
2022/08/31 05:53:45;;;;;;;1.35;0.70;;;;;;;;;;5064616;28;20248;-73
2022/08/31 05:56:11;;;;;;;2.05;0.90;;;;;;;;;;5052894;28;20207;-72
2022/08/31 05:58:37;;;;;;;2.55;0.80;;;;;;;;;;5045159;28;20387;-73
2022/08/31 06:01:03;;;;;;;3.35;0.73;;;;;;;;;;5043726;28;20729;-73
2022/08/31 06:03:29;;;;;;;2.63;0.98;;;;;;;;;;5044135;28;20751;-73
2022/08/31 06:05:54;;;;;;;2.28;0.82;;;;;;;;;;5044518;28;20376;-73
2022/08/31 06:08:19;;;;;;;2.78;0.90;;;;;;;;;;5043795;28;22419;-73
2022/08/31 06:10:45;;;;;;;2.95;0.80;;;;;;;;;;5045468;28;20227;-73
2022/08/31 06:13:12;;;;;;;3.03;1.15;;;;;;;;;;5045260;28;20203;-73
2022/08/31 06:15:38;;;;;;;2.92;0.80;;;;;;;;;;5043830;28;20298;-73
2022/08/31 06:18:03;;;;;;;1.73;0.80;;;;;;;;;;5046329;28;20599;-72
2022/08/31 06:20:28;;;;;;;2.60;0.70;;;;;;;;;;5048296;28;20215;-66
2022/08/31 06:22:54;;;;;;;2.72;1.13;;;;;;;;;;5061338;28;20210;-66
2022/08/31 06:25:19;;;;;;;2.47;0.85;;;;;;;;;;5054146;28;20215;-66
2022/08/31 06:27:49;;;;;;;1.73;0.73;;;;;;;;;;5043393;28;20219;-64
2022/08/31 06:30:20;;;;;;;3.60;0.80;;;;;;;;;;5013726;28;20679;-66
2022/08/31 06:32:46;;;;;;;2.88;1.00;;;;;;;;;;5044622;28;20574;-66
2022/08/31 06:35:11;;;;;;;1.70;0.90;;;;;;;;;;5042929;28;20214;-67
2022/08/31 06:37:36;;;;;;;2.72;0.98;;;;;;;;;;5042062;28;20226;-67
2022/08/31 06:40:02;;;;;;;2.40;0.75;;;;;;;;;;5042658;28;20207;-66
2022/08/31 06:42:27;;;;;;;2.78;1.30;;;;;;;;;;5043812;28;20238;-67
2022/08/31 06:44:52;;;;;;;2.33;0.75;;;;;;;;;;5044882;28;20452;-67
2022/08/31 06:47:18;;;;;;;3.53;1.02;;;;;;;;;;5044588;28;20231;-67
2022/08/31 06:49:44;;;;;;;3.97;0.80;;;;;;;;;;5043886;28;20285;-67
2022/08/31 06:52:09;;;;;;;4.13;0.85;;;;;;;;;;5053929;28;20598;-67
2022/08/31 06:54:35;;;;;;;2.13;0.70;;;;;;;;;;5063816;28;20217;-67
2022/08/31 06:57:01;;;;;;;4.15;1.30;;;;;;;;;;5057261;28;20218;-67
2022/08/31 06:59:26;;;;;;;2.80;1.20;;;;;;;;;;5042483;28;20218;-67
2022/08/31 07:01:52;;;;;;;1.90;1.00;;;;;;;;;;5042959;28;20207;-67
2022/08/31 07:04:17;;;;;;;4.43;1.00;;;;;;;;;;5042600;28;20215;-67
2022/08/31 07:06:43;;;;;;;2.63;1.17;;;;;;;;;;5042420;28;20219;-67
2022/08/31 07:09:09;;;;;;;3.00;1.00;;;;;;;;;;5043921;28;20211;-67
2022/08/31 07:11:36;;;;;;;2.95;1.20;;;;;;;;;;5043755;28;20697;-67
2022/08/31 07:14:01;;;;;;;4.30;0.90;;;;;;;;;;5042751;28;20214;-66
2022/08/31 07:16:26;;;;;;;3.65;1.10;;;;;;;;;;5042801;28;20207;-67
2022/08/31 07:18:53;;;;;;;3.55;1.13;;;;;;;;;;5042819;28;20214;-67
2022/08/31 07:21:21;;;;;;;3.72;0.95;;;;;;;;;;5043728;28;20258;-67
2022/08/31 07:23:47;;;;;;;4.28;1.27;;;;;;;;;;5042822;28;20218;-67
2022/08/31 07:26:15;;;;;;;3.53;1.30;;;;;;;;;;5041943;28;20234;-67
2022/08/31 07:28:42;;;;;;;2.47;1.02;;;;;;;;;;5044416;28;20211;-67
2022/08/31 07:31:07;;;;;;;4.15;1.10;;;;;;;;;;5042614;28;20238;-66
2022/08/31 07:33:37;;;;;;;3.33;1.25;;;;;;;;;;5041877;28;20247;-67
2022/08/31 07:36:03;;;;;;;5.18;1.10;;;;;;;;;;5042990;28;20211;-66
2022/08/31 07:43:58;;;;;;;3.83;1.40;;;;;;;;;;5043174;28;20213;-67
2022/08/31 07:46:29;;;;;;;2.17;1.05;;;;;;;;;;5042073;28;20305;-67
2022/08/31 07:48:55;;;;;;;3.80;1.10;;;;;;;;;;5043900;28;20206;-68
2022/08/31 07:51:22;;;;;;;2.47;1.08;;;;;;;;;;5042519;28;20578;-67
2022/08/31 07:53:48;;;;;;;6.38;1.38;;;;;;;;;;5038709;28;20311;-67
2022/08/31 07:56:15;;;;;;;2.35;1.15;;;;;;;;;;5020893;28;20692;-67
2022/08/31 07:58:41;;;;;;;3.72;1.10;;;;;;;;;;5027508;28;20222;-66
2022/08/31 08:01:07;;;;;;;4.00;1.30;;;;;;;;;;5041079;28;20211;-66
2022/08/31 08:03:32;;;;;;;3.42;1.40;;;;;;;;;;5042497;28;20292;-66
2022/08/31 08:05:57;;;;;;;5.72;1.38;;;;;;;;;;5042806;28;20227;-66
2022/08/31 08:08:23;;;;;;;2.78;1.33;;;;;;;;;;5041312;28;20689;-66
2022/08/31 08:10:49;;;;;;;6.75;1.30;;;;;;;;;;5041962;28;20218;-66
2022/08/31 08:13:18;;;;;;;6.97;1.30;;;;;;;;;;5041704;28;20230;-66
2022/08/31 08:15:43;;;;;;;6.47;1.70;;;;;;;;;;5040950;28;20278;-67
2022/08/31 08:18:11;;;;;;;3.55;1.58;;;;;;;;;;5042199;28;20317;-66
2022/08/31 08:20:36;;;;;;;4.60;1.30;;;;;;;;;;5040376;28;20207;-66
2022/08/31 08:23:01;;;;;;;3.65;1.40;;;;;;;;;;5042071;28;20215;-66
2022/08/31 08:25:27;;;;;;;3.72;1.20;;;;;;;;;;5040675;28;20801;-66
2022/08/31 08:27:53;;;;;;;2.88;1.27;;;;;;;;;;5042400;28;20215;-66
2022/08/31 08:30:18;;;;;;;5.30;1.25;;;;;;;;;;5041240;28;20272;-66
2022/08/31 08:32:43;;;;;;;3.03;1.50;;;;;;;;;;5042663;28;20223;-66
2022/08/31 08:35:09;;;;;;;3.42;1.42;;;;;;;;;;5032430;28;20203;-66
2022/08/31 08:37:36;;;;;;;4.60;1.40;;;;;;;;;;5041183;28;20227;-66
2022/08/31 08:40:04;;;;;;;2.90;1.23;;;;;;;;;;5040997;28;20218;-66
2022/08/31 08:42:29;;;;;;;5.03;1.40;;;;;;;;;;5029802;28;20742;-66
2022/08/31 08:44:55;;;;;;;3.08;1.50;;;;;;;;;;5022027;28;20240;-66
2022/08/31 08:47:23;;;;;;;3.17;1.40;;;;;;;;;;5016385;28;20228;-66
2022/08/31 08:49:49;;;;;;;4.07;1.50;;;;;;;;;;5017611;28;20310;-66
2022/08/31 08:52:20;;;;;;;5.43;1.50;;;;;;;;;;5044989;28;20588;-66
2022/08/31 08:54:45;;;;;;;4.75;1.40;;;;;;;;;;5060969;28;20293;-66
2022/08/31 08:57:16;;;;;;;4.80;1.45;;;;;;;;;;5061210;28;20209;-66
2022/08/31 08:59:42;;;;;;;7.90;1.90;;;;;;;;;;5061815;28;20305;-66
2022/08/31 09:02:09;;;;;;;4.38;1.30;;;;;;;;;;5061407;28;20215;-66
2022/08/31 09:04:39;;;;;;;2.85;1.30;;;;;;;;;;5060512;28;20233;-66
2022/08/31 09:07:11;;;;;;;2.80;1.35;;;;;;;;;;5064904;28;20767;-66
2022/08/31 09:09:41;;;;;;;5.80;1.42;;;;;;;;;;5063530;28;20206;-66
2022/08/31 09:12:19;;;;;;;4.80;1.38;;;;;;;;;;5063898;28;20237;-66
2022/08/31 09:14:49;;;;;;;2.42;1.40;;;;;;;;;;5064256;28;20378;-66
2022/08/31 09:17:23;;;;;;;4.00;1.35;;;;;;;;;;5053621;28;20211;-66
2022/08/31 09:19:58;;;;;;;4.93;1.60;;;;;;;;;;5043689;28;20653;-66
2022/08/31 09:22:24;;;;;;;2.83;1.10;;;;;;;;;;5044297;28;20260;-66
2022/08/31 09:24:51;;;;;;;2.75;1.35;;;;;;;;;;5044633;28;20207;-66
2022/08/31 09:27:17;;;;;;;3.00;1.45;;;;;;;;;;5043003;28;20609;-66
2022/08/31 09:29:44;;;;;;;6.45;1.40;;;;;;;;;;5043598;28;20211;-66
2022/08/31 09:32:15;;;;;;;3.13;1.30;;;;;;;;;;5044846;28;20673;-66
2022/08/31 09:34:40;;;;;;;5.90;1.50;;;;;;;;;;5046395;28;20207;-67
2022/08/31 09:37:15;;;;;;;4.15;1.35;;;;;;;;;;5044433;28;20470;-73
2022/08/31 09:39:41;;;;;;;3.28;1.20;;;;;;;;;;5043973;28;20329;-70
2022/08/31 09:42:12;;;;;;;5.63;1.20;;;;;;;;;;5044581;28;20211;-68
2022/08/31 09:44:39;;;;;;;3.22;1.30;;;;;;;;;;5015009;28;20266;-67
2022/08/31 09:47:05;;;;;;;4.65;1.42;;;;;;;;;;5043328;28;20227;-67
2022/08/31 09:49:35;;;;;;;2.72;1.30;;;;;;;;;;5018946;28;20240;-68
2022/08/31 09:52:15;;;;;;;3.65;1.30;;;;;;;;;;5077380;28;20197;-66
2022/08/31 09:57:40;;;;;;;4.75;1.17;;;;;;;;;;5074436;28;20228;-67
2022/08/31 10:00:06;;;;;;;5.03;1.30;;;;;;;;;;5081463;28;20286;-67
2022/08/31 10:02:32;;;;;;;3.75;1.30;;;;;;;;;;5065165;28;20217;-66
2022/08/31 10:04:59;;;;;;;5.93;1.33;;;;;;;;;;5069183;28;20252;-67
2022/08/31 10:07:27;;;;;;;3.83;1.50;;;;;;;;;;5081139;28;20290;-67
2022/08/31 10:09:54;;;;;;;5.75;1.30;;;;;;;;;;5081606;28;20237;-67
2022/08/31 10:12:33;;;;;;;5.22;1.30;;;;;;;;;;5080696;28;20240;-67
2022/08/31 10:15:02;;;;;;;3.33;1.40;;;;;;;;;;5045898;28;20311;-68
2022/08/31 10:17:29;;;;;;;3.47;1.40;;;;;;;;;;5084739;28;20468;-66
2022/08/31 10:20:05;;;;;;;5.25;1.38;;;;;;;;;;5091540;28;20218;-66
2022/08/31 10:22:31;;;;;;;4.68;1.20;;;;;;;;;;5044004;28;20297;-66
2022/08/31 10:25:05;;;;;;;4.50;1.65;;;;;;;;;;5044093;28;20218;-66
2022/08/31 10:27:37;;;;;;;4.03;1.25;;;;;;;;;;5059502;28;20640;-66
2022/08/31 10:30:05;;;;;;;10.23;1.95;;;;;;;;;;5059546;28;20218;-66
2022/08/31 10:32:39;;;;;;;3.80;1.30;;;;;;;;;;5059854;28;20228;-66
2022/08/31 10:35:07;;;;;;;3.47;1.23;;;;;;;;;;5059633;28;20218;-66
2022/08/31 10:37:34;;;;;;;2.33;1.20;;;;;;;;;;5044636;28;20701;-65
2022/08/31 10:40:05;;;;;;;4.28;1.20;;;;;;;;;;5060283;28;20620;-67
2022/08/31 10:42:36;;;;;;;2.17;1.20;;;;;;;;;;5059281;28;20237;-67
2022/08/31 10:45:08;;;;;;;3.55;1.40;;;;;;;;;;5043596;28;20230;-67
2022/08/31 10:47:40;;;;;;;3.72;1.10;;;;;;;;;;5042516;28;20330;-67
2022/08/31 10:50:05;;;;;;;6.40;1.27;;;;;;;;;;5043081;28;20207;-67
2022/08/31 10:52:41;;;;;;;5.82;1.30;;;;;;;;;;5058005;28;20210;-67
2022/08/31 10:55:11;;;;;;;3.72;1.20;;;;;;;;;;5062613;28;20275;-66
2022/08/31 10:57:40;;;;;;;6.28;1.20;;;;;;;;;;5062632;28;20664;-67
2022/08/31 11:00:07;;;;;;;2.90;1.20;;;;;;;;;;5063508;28;20222;-67
2022/08/31 11:02:37;;;;;;;3.38;1.25;;;;;;;;;;5061919;28;20221;-67
2022/08/31 11:05:17;;;;;;;5.32;1.48;;;;;;;;;;5063254;28;20673;-67
2022/08/31 11:07:46;;;;;;;2.40;1.25;;;;;;;;;;5063317;28;20227;-67
2022/08/31 11:10:18;;;;;;;3.78;1.30;;;;;;;;;;5062252;28;20202;-67
2022/08/31 11:12:45;;;;;;;4.63;1.48;;;;;;;;;;5061079;28;20218;-66
2022/08/31 11:15:21;;;;;;;2.63;1.33;;;;;;;;;;5061555;28;20241;-67
2022/08/31 11:17:54;;;;;;;6.10;1.48;;;;;;;;;;5047906;28;20322;-67
2022/08/31 11:20:23;;;;;;;4.25;1.30;;;;;;;;;;5041195;28;20650;-67
2022/08/31 11:22:55;;;;;;;7.88;1.20;;;;;;;;;;5043262;28;20349;-66
2022/08/31 11:25:32;;;;;;;3.53;1.30;;;;;;;;;;5041127;28;20666;-67
2022/08/31 11:27:58;;;;;;;7.60;1.30;;;;;;;;;;5040574;28;20218;-67
2022/08/31 11:30:26;;;;;;;3.53;1.08;;;;;;;;;;5041814;28;20219;-65
2022/08/31 11:32:51;;;;;;;5.32;1.30;;;;;;;;;;5042137;28;20208;-67
2022/08/31 11:35:37;;;;;;;4.45;1.27;;;;;;;;;;5044750;28;20222;-67
2022/08/31 11:38:02;;;;;;;4.20;1.17;;;;;;;;;;5049330;28;20221;-67
2022/08/31 11:40:40;;;;;;;3.83;1.20;;;;;;;;;;5114063;27;20229;-66
2022/08/31 11:43:12;;;;;;;4.07;1.48;;;;;;;;;;5108350;27;20306;-67
2022/08/31 11:45:38;;;;;;;3.85;1.20;;;;;;;;;;5062078;28;20257;-67
2022/08/31 11:48:05;;;;;;;2.00;1.20;;;;;;;;;;5079174;28;20332;-67
2022/08/31 11:50:53;;;;;;;7.00;1.08;;;;;;;;;;5080782;28;20474;-66
2022/08/31 11:53:22;;;;;;;5.97;1.15;;;;;;;;;;5097905;28;20205;-66
2022/08/31 11:55:48;;;;;;;6.97;1.42;;;;;;;;;;5089015;28;20223;-67
2022/08/31 11:58:14;;;;;;;4.70;1.10;;;;;;;;;;5095895;28;20205;-66
2022/08/31 12:00:44;;;;;;;3.80;1.20;;;;;;;;;;5077697;28;20244;-66
2022/08/31 12:03:09;;;;;;;3.63;1.17;;;;;;;;;;5058599;28;20367;-67
2022/08/31 12:05:49;;;;;;;3.17;1.10;;;;;;;;;;5079284;28;20218;-67
2022/08/31 12:08:15;;;;;;;4.20;1.27;;;;;;;;;;5077755;28;20813;-67
2022/08/31 12:10:44;;;;;;;3.67;1.20;;;;;;;;;;5021205;28;20683;-67
2022/08/31 12:13:18;;;;;;;4.70;1.38;;;;;;;;;;5019922;28;20220;-67
2022/08/31 12:15:52;;;;;;;5.70;1.20;;;;;;;;;;5028182;28;20514;-67
2022/08/31 12:18:30;;;;;;;6.22;1.27;;;;;;;;;;5040687;28;20548;-67
2022/08/31 12:24:08;;;;;;;6.28;1.20;;;;;;;;;;5040614;28;20226;-67
2022/08/31 12:26:33;;;;;;;2.50;1.13;;;;;;;;;;5040422;28;20230;-67
2022/08/31 12:29:02;;;;;;;5.05;1.10;;;;;;;;;;5042526;28;20233;-67
2022/08/31 12:31:28;;;;;;;2.47;1.10;;;;;;;;;;5041378;28;20225;-66
2022/08/31 12:34:04;;;;;;;3.92;1.10;;;;;;;;;;5040697;28;20608;-67
2022/08/31 12:36:30;;;;;;;5.03;1.08;;;;;;;;;;5048944;28;20194;-67
2022/08/31 12:39:03;;;;;;;7.15;1.40;;;;;;;;;;5058551;28;20316;-67
2022/08/31 12:41:29;;;;;;;2.85;1.10;;;;;;;;;;5044064;28;20215;-67
2022/08/31 12:43:54;;;;;;;3.13;1.05;;;;;;;;;;5053831;28;20221;-67
2022/08/31 12:46:32;;;;;;;5.30;1.27;;;;;;;;;;5064270;28;20300;-67
2022/08/31 12:49:06;;;;;;;3.95;1.17;;;;;;;;;;5064650;28;20218;-67
2022/08/31 12:51:33;;;;;;;4.70;1.40;;;;;;;;;;5059536;28;20215;-67
2022/08/31 12:54:11;;;;;;;3.03;0.98;;;;;;;;;;5064904;28;20215;-67
2022/08/31 12:56:39;;;;;;;5.47;1.00;;;;;;;;;;5063622;28;20297;-67
2022/08/31 12:59:05;;;;;;;5.30;1.50;;;;;;;;;;5062891;28;20222;-67
2022/08/31 13:01:31;;;;;;;4.82;1.05;;;;;;;;;;5045627;28;20724;-67
2022/08/31 13:03:58;;;;;;;2.92;1.10;;;;;;;;;;5018805;28;20215;-67
2022/08/31 13:06:25;;;;;;;6.05;1.10;;;;;;;;;;5017627;28;20220;-67
2022/08/31 13:08:52;;;;;;;4.30;1.10;;;;;;;;;;5018717;28;20222;-68
2022/08/31 13:11:28;;;;;;;7.20;1.45;;;;;;;;;;5026020;28;20211;-68
2022/08/31 13:14:06;;;;;;;6.88;1.13;;;;;;;;;;5039304;28;20218;-67
2022/08/31 13:16:31;;;;;;;3.60;1.67;;;;;;;;;;5033650;28;20308;-68
2022/08/31 13:18:58;;;;;;;3.78;1.50;;;;;;;;;;5019287;28;20690;-68
2022/08/31 13:21:30;;;;;;;5.07;1.08;;;;;;;;;;5035924;28;20218;-67
2022/08/31 13:24:02;;;;;;;4.97;1.30;;;;;;;;;;5036598;28;20222;-68
2022/08/31 13:26:28;;;;;;;4.05;1.30;;;;;;;;;;5015738;28;20447;-68
2022/08/31 13:28:54;;;;;;;3.15;1.20;;;;;;;;;;5013382;28;20215;-67
2022/08/31 13:31:22;;;;;;;4.68;1.42;;;;;;;;;;5028872;28;21758;-68
2022/08/31 13:33:47;;;;;;;4.28;1.00;;;;;;;;;;5018330;28;20630;-68
2022/08/31 13:36:21;;;;;;;4.63;1.45;;;;;;;;;;5018039;28;20208;-68
2022/08/31 13:38:49;;;;;;;3.97;1.20;;;;;;;;;;5017658;28;20469;-68
2022/08/31 13:41:17;;;;;;;3.88;1.20;;;;;;;;;;5029678;28;20620;-67
2022/08/31 13:43:46;;;;;;;2.97;1.10;;;;;;;;;;5017504;28;20266;-68
2022/08/31 13:46:11;;;;;;;4.35;1.40;;;;;;;;;;5037155;28;20424;-68
2022/08/31 13:48:36;;;;;;;1.67;1.00;;;;;;;;;;5028703;28;20216;-68
2022/08/31 13:51:06;;;;;;;3.58;0.95;;;;;;;;;;5010397;28;20316;-67
2022/08/31 13:53:35;;;;;;;2.95;0.90;;;;;;;;;;5032576;28;20304;-68
2022/08/31 13:56:00;;;;;;;6.95;1.05;;;;;;;;;;5036253;28;20264;-68
2022/08/31 13:58:28;;;;;;;3.13;0.90;;;;;;;;;;5035790;28;20211;-68
2022/08/31 14:01:13;;;;;;;5.07;1.23;;;;;;;;;;5007216;28;20301;-68
2022/08/31 14:03:55;;;;;;;5.85;1.17;;;;;;;;;;5037168;28;20542;-67
2022/08/31 14:06:23;;;;;;;4.30;1.30;;;;;;;;;;5004167;28;20232;-68
2022/08/31 14:08:50;;;;;;;4.75;1.17;;;;;;;;;;5017617;28;20223;-67
2022/08/31 14:11:16;;;;;;;3.53;1.35;;;;;;;;;;5021524;28;20625;-68
2022/08/31 14:13:47;;;;;;;2.65;1.30;;;;;;;;;;5010382;28;20365;-69
2022/08/31 14:16:16;;;;;;;4.57;1.15;;;;;;;;;;5012079;28;20480;-69
2022/08/31 14:18:41;;;;;;;3.20;1.10;;;;;;;;;;5033642;28;20211;-69
2022/08/31 14:21:08;;;;;;;1.98;1.10;;;;;;;;;;5036106;28;20222;-69
2022/08/31 14:23:35;;;;;;;3.88;1.15;;;;;;;;;;5020083;28;20216;-69
2022/08/31 14:26:02;;;;;;;3.72;1.10;;;;;;;;;;5021378;28;20370;-69
2022/08/31 14:28:39;;;;;;;3.95;1.13;;;;;;;;;;5036739;28;20300;-69
2022/08/31 14:31:11;;;;;;;2.80;1.10;;;;;;;;;;5036057;28;20327;-68
2022/08/31 14:33:36;;;;;;;2.30;1.10;;;;;;;;;;5031020;28;20571;-69
2022/08/31 14:36:12;;;;;;;4.78;1.45;;;;;;;;;;5030262;28;20689;-69
2022/08/31 14:38:37;;;;;;;2.55;1.55;;;;;;;;;;5013387;28;20215;-69
2022/08/31 14:41:02;;;;;;;3.95;1.45;;;;;;;;;;5013622;28;20644;-69
2022/08/31 14:43:28;;;;;;;5.22;1.23;;;;;;;;;;5017214;28;20212;-69
2022/08/31 14:45:53;;;;;;;4.55;1.20;;;;;;;;;;5016971;28;20231;-69
2022/08/31 14:48:18;;;;;;;4.68;1.00;;;;;;;;;;5015166;28;20215;-69
2022/08/31 14:50:43;;;;;;;4.97;1.20;;;;;;;;;;5017548;28;20219;-69
2022/08/31 14:53:10;;;;;;;2.15;0.93;;;;;;;;;;5017175;28;20204;-69
2022/08/31 14:55:36;;;;;;;4.05;1.15;;;;;;;;;;5034575;28;20464;-69
2022/08/31 14:58:04;;;;;;;5.22;1.00;;;;;;;;;;5029266;28;20720;-69